createdAt,value
2018-09-17T00:01:42.658Z,75.14
2018-09-17T00:04:11.357Z,76.30
2018-09-17T00:06:40.011Z,75.23
2018-09-17T00:09:10.260Z,75.29
2018-09-17T00:11:39.010Z,75.42
2018-09-17T00:14:07.658Z,75.47
2018-09-17T00:16:36.811Z,75.33
2018-09-17T00:19:05.834Z,75.22
2018-09-17T00:21:34.937Z,76.14
2018-09-17T00:24:03.661Z,76.14
2018-09-17T00:26:32.337Z,76.18
2018-09-17T00:29:01.010Z,76.62
2018-09-17T00:31:29.686Z,76.24
2018-09-17T00:33:58.397Z,76.22
2018-09-17T00:36:27.104Z,77.01
2018-09-17T00:38:55.773Z,77.29
2018-09-17T00:41:24.491Z,77.36
2018-09-17T00:43:53.177Z,77.15
2018-09-17T00:46:21.848Z,76.86
2018-09-17T00:48:50.529Z,77.67
2018-09-17T00:51:19.935Z,76.94
2018-09-17T00:53:48.688Z,77.57
2018-09-17T00:56:17.396Z,77.58
2018-09-17T00:58:46.042Z,78.60
2018-09-17T01:01:14.714Z,78.70
2018-09-17T01:03:43.418Z,77.77
2018-09-17T01:06:12.049Z,77.75
2018-09-17T01:08:40.697Z,77.96
2018-09-17T01:11:09.443Z,78.68
2018-09-17T01:13:38.104Z,78.84
2018-09-17T01:16:06.774Z,78.46
2018-09-17T01:18:35.430Z,78.09
2018-09-17T01:21:04.178Z,79.87
2018-09-17T01:23:32.843Z,78.32
2018-09-17T01:26:01.570Z,78.73
2018-09-17T01:28:30.271Z,78.61
2018-09-17T01:30:58.915Z,77.38
2018-09-17T01:33:27.569Z,76.95
2018-09-17T01:35:56.251Z,76.48
2018-09-17T01:38:24.975Z,76.48
2018-09-17T01:40:53.672Z,75.94
2018-09-17T01:43:22.412Z,75.91
2018-09-17T01:45:51.156Z,76.01
2018-09-17T01:48:19.988Z,75.67
2018-09-17T01:50:48.684Z,76.23
2018-09-17T01:53:17.413Z,76.67
2018-09-17T01:55:46.121Z,76.50
2018-09-17T01:58:14.805Z,75.32
2018-09-17T02:00:43.491Z,75.34
2018-09-17T02:03:12.121Z,75.32
2018-09-17T02:05:40.767Z,75.61
2018-09-17T02:08:09.485Z,76.10
2018-09-17T02:10:38.169Z,76.71
2018-09-17T02:13:07.015Z,76.99
2018-09-17T02:15:36.647Z,77.00
2018-09-17T02:18:05.372Z,77.46
2018-09-17T02:20:34.018Z,78.35
2018-09-17T02:23:02.639Z,78.51
2018-09-17T02:25:31.314Z,78.09
2018-09-17T02:27:59.952Z,78.75
2018-09-17T02:30:28.675Z,78.68
2018-09-17T02:32:57.350Z,79.09
2018-09-17T02:35:26.011Z,79.07
2018-09-17T02:37:54.638Z,79.40
2018-09-17T02:40:23.307Z,79.12
2018-09-17T02:42:51.933Z,78.84
2018-09-17T02:45:21.356Z,79.63
2018-09-17T02:47:50.026Z,79.76
2018-09-17T02:50:18.753Z,79.83
2018-09-17T02:52:47.418Z,80.49
2018-09-17T02:55:16.205Z,80.43
2018-09-17T02:57:44.864Z,80.53
2018-09-17T03:00:13.580Z,80.55
2018-09-17T03:02:42.223Z,81.33
2018-09-17T03:05:10.927Z,81.14
2018-09-17T03:07:39.609Z,81.42
2018-09-17T03:10:08.245Z,81.60
2018-09-17T03:12:36.924Z,82.03
2018-09-17T03:15:16.715Z,81.54
2018-09-17T03:17:45.355Z,80.30
2018-09-17T03:20:14.028Z,79.73
2018-09-17T03:22:42.692Z,79.63
2018-09-17T03:25:11.336Z,79.81
2018-09-17T03:27:39.965Z,80.80
2018-09-17T03:30:08.790Z,80.56
2018-09-17T03:32:37.413Z,80.76
2018-09-17T03:35:06.105Z,80.94
2018-09-17T03:37:34.779Z,79.95
2018-09-17T03:40:03.620Z,80.02
2018-09-17T03:42:33.135Z,79.54
2018-09-17T03:45:01.766Z,80.28
2018-09-17T03:47:30.424Z,79.58
2018-09-17T03:49:59.095Z,80.01
2018-09-17T03:52:27.751Z,78.58
2018-09-17T03:54:56.396Z,79.14
2018-09-17T03:57:25.078Z,78.83
2018-09-17T03:59:53.796Z,79.09
2018-09-17T04:02:22.510Z,79.43
2018-09-17T04:04:51.148Z,79.05
2018-09-17T04:07:19.856Z,78.86
2018-09-17T04:09:48.568Z,79.29
2018-09-17T04:12:17.243Z,78.88
2018-09-17T04:14:45.878Z,79.72
2018-09-17T04:17:14.539Z,78.60
2018-09-17T04:19:43.205Z,79.00
2018-09-17T04:22:11.920Z,79.95
2018-09-17T04:24:40.616Z,78.52
2018-09-17T04:27:09.267Z,78.45
2018-09-17T04:29:38.057Z,79.45
2018-09-17T04:32:06.728Z,78.29
2018-09-17T04:34:35.363Z,78.07
2018-09-17T04:37:04.059Z,77.59
2018-09-17T04:39:32.803Z,77.81
2018-09-17T04:42:01.784Z,77.30
2018-09-17T04:44:30.502Z,77.35
2018-09-17T04:46:59.144Z,77.24
2018-09-17T04:49:27.817Z,77.95
2018-09-17T04:51:56.492Z,77.65
2018-09-17T04:54:25.227Z,77.90
2018-09-17T04:56:53.857Z,76.10
2018-09-17T04:59:22.523Z,75.94
2018-09-17T05:01:51.149Z,75.25
2018-09-17T05:04:19.836Z,74.48
2018-09-17T05:06:48.478Z,72.45
2018-09-17T05:09:17.144Z,72.86
2018-09-17T05:11:45.854Z,71.96
2018-09-17T05:14:14.505Z,72.56
2018-09-17T05:16:43.221Z,71.98
2018-09-17T05:19:11.894Z,72.24
2018-09-17T05:21:40.580Z,71.34
2018-09-17T05:24:09.257Z,71.90
2018-09-17T05:26:47.359Z,70.85
2018-09-17T05:29:18.029Z,69.77
2018-09-17T05:31:46.775Z,68.65
2018-09-17T05:34:15.550Z,68.15
2018-09-17T05:36:50.696Z,68.72
2018-09-17T05:39:19.354Z,67.82
2018-09-17T05:41:48.065Z,66.22
2018-09-17T05:44:17.288Z,68.17
2018-09-17T05:46:45.975Z,66.35
2018-09-17T05:49:14.767Z,66.03
2018-09-17T05:51:51.827Z,64.72
2018-09-17T05:54:20.627Z,63.56
2018-09-17T05:57:04.095Z,62.08
2018-09-17T05:59:32.854Z,63.32
2018-09-17T06:02:01.556Z,64.98
2018-09-17T06:04:30.416Z,66.95
2018-09-17T06:06:59.281Z,67.11
2018-09-17T06:09:27.913Z,67.42
2018-09-17T06:11:56.658Z,67.81
2018-09-17T06:14:25.325Z,68.40
2018-09-17T06:16:53.937Z,68.59
2018-09-17T06:19:22.593Z,67.73
2018-09-17T06:21:51.227Z,67.00
2018-09-17T06:24:19.927Z,66.97
2018-09-17T06:26:48.699Z,67.75
2018-09-17T06:29:17.361Z,67.99
2018-09-17T06:31:46.100Z,67.60
2018-09-17T06:34:14.761Z,68.68
2018-09-17T06:36:43.446Z,69.33
2018-09-17T06:39:12.135Z,68.26
2018-09-17T06:41:40.949Z,68.66
2018-09-17T06:44:09.608Z,68.01
2018-09-17T06:46:38.262Z,67.97
2018-09-17T06:49:06.905Z,67.65
2018-09-17T06:51:35.550Z,67.90
2018-09-17T06:54:04.229Z,67.81
2018-09-17T06:56:32.893Z,68.26
2018-09-17T06:59:01.666Z,67.15
2018-09-17T07:01:30.381Z,67.60
2018-09-17T07:03:59.095Z,67.12
2018-09-17T07:06:27.743Z,66.87
2018-09-17T07:08:56.403Z,67.86
2018-09-17T07:11:25.039Z,66.30
2018-09-17T07:13:53.734Z,65.43
2018-09-17T07:16:22.384Z,65.55
2018-09-17T07:18:51.091Z,64.56
2018-09-17T07:21:19.857Z,63.29
2018-09-17T07:23:48.518Z,62.98
2018-09-17T07:26:17.234Z,61.88
2018-09-17T07:28:45.911Z,61.90
2018-09-17T07:31:14.590Z,61.58
2018-09-17T07:33:43.216Z,61.68
2018-09-17T07:36:11.992Z,60.86
2018-09-17T07:38:40.723Z,61.87
2018-09-17T07:41:09.398Z,62.26
2018-09-17T07:43:38.065Z,60.81
2018-09-17T07:46:06.871Z,60.53
2018-09-17T07:48:35.534Z,60.13
2018-09-17T07:51:04.244Z,58.80
2018-09-17T07:53:32.920Z,58.66
2018-09-17T07:56:01.579Z,57.99
2018-09-17T07:58:30.312Z,57.40
2018-09-17T08:00:59.058Z,56.18
2018-09-17T08:03:27.755Z,54.10
2018-09-17T08:05:56.557Z,52.84
2018-09-17T08:08:25.414Z,52.45
2018-09-17T08:10:54.154Z,49.79
2018-09-17T08:13:22.855Z,49.44
2018-09-17T08:15:51.595Z,49.35
2018-09-17T08:18:20.438Z,48.53
2018-09-17T08:20:49.163Z,49.50
2018-09-17T08:23:17.883Z,48.38
2018-09-17T08:25:46.588Z,48.43
2018-09-17T08:28:15.289Z,46.97
2018-09-17T08:30:44.065Z,46.94
2018-09-17T08:33:12.774Z,46.40
2018-09-17T08:35:41.475Z,47.31
2018-09-17T08:38:10.241Z,49.02
2018-09-17T08:40:39.029Z,49.76
2018-09-17T08:43:07.780Z,49.57
2018-09-17T08:45:36.571Z,49.76
2018-09-17T08:48:05.240Z,48.13
2018-09-17T08:50:33.967Z,49.15
2018-09-17T08:53:02.716Z,47.76
2018-09-17T08:55:36.704Z,49.60
2018-09-17T08:58:10.709Z,49.20
2018-09-17T09:00:44.591Z,47.00
2018-09-17T09:03:18.417Z,49.04
2018-09-17T09:05:52.564Z,49.00
2018-09-17T09:08:21.347Z,47.25
2018-09-17T09:10:54.123Z,47.89
2018-09-17T09:13:28.018Z,46.81
2018-09-17T09:15:57.003Z,46.82
2018-09-17T09:18:25.683Z,47.51
2018-09-17T09:20:54.356Z,46.95
2018-09-17T09:23:23.036Z,48.39
2018-09-17T09:25:51.712Z,47.37
2018-09-17T09:28:20.358Z,46.82
2018-09-17T09:30:49.047Z,45.98
2018-09-17T09:33:17.710Z,44.68
2018-09-17T09:35:46.511Z,45.23
2018-09-17T09:38:15.206Z,44.88
2018-09-17T09:40:44.009Z,43.59
2018-09-17T09:43:12.750Z,44.06
2018-09-17T09:45:41.424Z,44.41
2018-09-17T09:48:10.083Z,41.89
2018-09-17T09:50:38.748Z,41.31
2018-09-17T09:53:07.416Z,42.81
2018-09-17T09:55:36.085Z,40.59
2018-09-17T09:58:04.810Z,39.16
2018-09-17T10:00:38.782Z,41.56
2018-09-17T10:03:12.727Z,40.22
2018-09-17T10:05:41.381Z,41.13
2018-09-17T10:08:10.087Z,40.09
2018-09-17T10:10:43.967Z,39.74
2018-09-17T10:13:17.869Z,40.39
2018-09-17T10:15:50.238Z,42.63
2018-09-17T10:18:24.384Z,41.43
2018-09-17T10:20:53.053Z,41.29
2018-09-17T10:23:21.731Z,38.65
2018-09-17T10:25:50.568Z,38.94
2018-09-17T10:28:19.224Z,39.94
2018-09-17T10:30:47.888Z,40.67
2018-09-17T10:33:16.560Z,39.87
2018-09-17T10:35:45.217Z,38.27
2018-09-17T10:38:13.854Z,37.31
2018-09-17T10:40:43.556Z,38.80
2018-09-17T10:43:12.234Z,40.71
2018-09-17T10:45:40.906Z,43.00
2018-09-17T10:48:09.663Z,43.61
2018-09-17T10:50:38.312Z,44.94
2018-09-17T10:53:06.977Z,45.31
2018-09-17T10:55:35.722Z,45.13
2018-09-17T10:58:04.428Z,43.52
2018-09-17T11:00:33.116Z,44.36
2018-09-17T11:03:01.781Z,42.64
2018-09-17T11:05:30.525Z,39.97
2018-09-17T11:07:59.236Z,37.40
2018-09-17T11:10:27.906Z,36.85
2018-09-17T11:12:56.582Z,37.09
2018-09-17T11:15:31.129Z,39.42
2018-09-17T11:17:59.827Z,40.96
2018-09-17T11:20:28.518Z,42.42
2018-09-17T11:22:57.220Z,41.00
2018-09-17T11:25:26.188Z,39.77
2018-09-17T11:27:55.196Z,38.60
2018-09-17T11:30:23.891Z,37.34
2018-09-17T11:32:52.615Z,36.00
2018-09-17T11:35:21.313Z,35.56
2018-09-17T11:37:49.974Z,35.35
2018-09-17T11:40:18.727Z,37.23
2018-09-17T11:42:47.422Z,36.37
2018-09-17T11:45:16.103Z,36.49
2018-09-17T11:47:44.778Z,36.02
2018-09-17T11:50:13.452Z,34.63
2018-09-17T11:52:42.189Z,33.94
2018-09-17T11:55:10.876Z,33.19
2018-09-17T11:57:39.672Z,33.71
2018-09-17T12:00:10.802Z,34.85
2018-09-17T12:02:43.627Z,35.49
2018-09-17T12:05:16.491Z,34.63
2018-09-17T12:07:45.151Z,33.72
2018-09-17T12:10:13.886Z,34.97
2018-09-17T12:12:42.591Z,35.04
2018-09-17T12:15:11.609Z,34.21
2018-09-17T12:17:40.252Z,35.13
2018-09-17T12:20:09.005Z,36.45
2018-09-17T12:22:37.701Z,35.44
2018-09-17T12:25:06.490Z,34.88
2018-09-17T12:27:35.147Z,34.73
2018-09-17T12:30:07.631Z,35.92
2018-09-17T12:32:36.320Z,37.83
2018-09-17T12:35:05.051Z,35.79
2018-09-17T12:37:34.685Z,37.30
2018-09-17T12:40:03.382Z,37.28
2018-09-17T12:42:32.017Z,36.54
2018-09-17T12:45:00.665Z,34.85
2018-09-17T12:47:29.367Z,35.79
2018-09-17T12:49:58.060Z,35.23
2018-09-17T12:52:26.719Z,35.58
2018-09-17T12:54:55.407Z,36.86
2018-09-17T12:57:24.161Z,38.63
2018-09-17T12:59:52.801Z,39.01
2018-09-17T13:02:21.460Z,38.30
2018-09-17T13:04:50.159Z,38.88
2018-09-17T13:07:19.315Z,40.37
2018-09-17T13:09:48.343Z,40.87
2018-09-17T13:12:17.051Z,42.00
2018-09-17T13:14:45.744Z,42.07
2018-09-17T13:17:14.451Z,41.85
2018-09-17T13:19:43.156Z,40.58
2018-09-17T13:22:11.888Z,40.39
2018-09-17T13:24:40.584Z,40.74
2018-09-17T13:27:09.260Z,41.49
2018-09-17T13:29:38.072Z,40.40
2018-09-17T13:32:06.903Z,40.44
2018-09-17T13:34:35.518Z,41.17
2018-09-17T13:37:04.291Z,40.21
2018-09-17T13:39:33.054Z,39.89
2018-09-17T13:42:01.735Z,40.91
2018-09-17T13:44:30.537Z,40.97
2018-09-17T13:46:59.154Z,40.63
2018-09-17T13:49:27.924Z,41.54
2018-09-17T13:51:56.920Z,41.94
2018-09-17T13:54:25.734Z,41.83
2018-09-17T13:56:54.534Z,41.50
2018-09-17T13:59:23.322Z,42.61
2018-09-17T14:01:52.031Z,41.48
2018-09-17T14:04:20.850Z,42.11
2018-09-17T14:06:49.449Z,41.85
2018-09-17T14:09:18.114Z,41.69
2018-09-17T14:11:46.808Z,41.84
2018-09-17T14:14:15.642Z,41.64
2018-09-17T14:16:44.422Z,42.16
2018-09-17T14:19:13.152Z,43.36
2018-09-17T14:21:41.911Z,43.14
2018-09-17T14:24:10.612Z,42.79
2018-09-17T14:26:39.357Z,43.33
2018-09-17T14:29:08.078Z,42.68
2018-09-17T14:31:41.897Z,42.18
2018-09-17T14:34:10.629Z,41.55
2018-09-17T14:36:39.469Z,41.92
2018-09-17T14:39:09.300Z,42.15
2018-09-17T14:41:38.014Z,42.94
2018-09-17T14:44:06.813Z,42.75
2018-09-17T14:46:35.612Z,42.38
2018-09-17T14:49:04.328Z,42.68
2018-09-17T14:51:33.049Z,43.12
2018-09-17T14:54:01.727Z,42.66
2018-09-17T14:56:30.450Z,42.82
2018-09-17T14:58:59.242Z,42.93
2018-09-17T15:01:28.006Z,43.17
2018-09-17T15:03:56.758Z,42.79
2018-09-17T15:06:25.502Z,42.98
2018-09-17T15:08:54.165Z,43.11
2018-09-17T15:11:22.878Z,43.25
2018-09-17T15:13:51.579Z,43.09
2018-09-17T15:16:20.339Z,43.53
2018-09-17T15:18:49.018Z,43.24
2018-09-17T15:21:17.682Z,43.57
2018-09-17T15:23:46.455Z,43.20
2018-09-17T15:26:15.153Z,43.23
2018-09-17T15:28:43.755Z,43.61
2018-09-17T15:31:12.957Z,43.86
2018-09-17T15:33:41.719Z,44.04
2018-09-17T15:36:10.366Z,43.74
2018-09-17T15:38:39.080Z,44.05
2018-09-17T15:41:07.907Z,44.31
2018-09-17T15:43:36.571Z,44.45
2018-09-17T15:46:05.270Z,44.53
2018-09-17T15:48:33.987Z,45.01
2018-09-17T15:51:02.650Z,45.29
2018-09-17T15:53:31.320Z,45.25
2018-09-17T15:56:00.754Z,45.35
2018-09-17T15:58:29.484Z,45.32
2018-09-17T16:00:58.127Z,45.64
2018-09-17T16:03:26.849Z,45.82
2018-09-17T16:05:55.568Z,46.06
2018-09-17T16:08:24.255Z,45.62
2018-09-17T16:10:52.982Z,46.84
2018-09-17T16:13:21.786Z,46.36
2018-09-17T16:15:50.477Z,46.82
2018-09-17T16:18:19.548Z,47.29
2018-09-17T16:20:48.263Z,47.29
2018-09-17T16:23:19.884Z,47.14
2018-09-17T16:25:48.602Z,47.40
2018-09-17T16:28:17.260Z,48.28
2018-09-17T16:30:45.959Z,48.50
2018-09-17T16:33:14.685Z,48.67
2018-09-17T16:35:43.395Z,48.79
2018-09-17T16:38:12.059Z,49.11
2018-09-17T16:40:40.780Z,49.01
2018-09-17T16:43:09.446Z,49.22
2018-09-17T16:45:38.083Z,48.98
2018-09-17T16:48:06.724Z,49.20
2018-09-17T16:50:35.427Z,50.05
2018-09-17T16:53:04.073Z,50.06
2018-09-17T16:55:32.819Z,50.29
2018-09-17T16:58:01.561Z,49.80
2018-09-17T17:00:31.502Z,50.13
2018-09-17T17:03:00.194Z,50.52
2018-09-17T17:05:28.878Z,50.50
2018-09-17T17:07:57.596Z,51.09
2018-09-17T17:10:26.237Z,51.51
2018-09-17T17:12:54.978Z,51.04
2018-09-17T17:15:23.653Z,52.22
2018-09-17T17:17:52.607Z,52.88
2018-09-17T17:20:21.298Z,53.20
2018-09-17T17:22:49.981Z,53.04
2018-09-17T17:25:18.742Z,53.82
2018-09-17T17:27:47.465Z,54.15
2018-09-17T17:30:18.718Z,54.11
2018-09-17T17:32:47.439Z,53.67
2018-09-17T17:35:16.161Z,54.36
2018-09-17T17:37:44.883Z,54.04
2018-09-17T17:40:13.588Z,53.88
2018-09-17T17:42:42.242Z,54.53
2018-09-17T17:45:10.892Z,54.15
2018-09-17T17:47:39.560Z,54.66
2018-09-17T17:50:08.284Z,54.66
2018-09-17T17:52:37.377Z,54.54
2018-09-17T17:55:06.485Z,55.07
2018-09-17T17:57:35.140Z,55.05
2018-09-17T18:00:05.419Z,55.16
2018-09-17T18:02:34.167Z,55.34
2018-09-17T18:05:02.828Z,56.14
2018-09-17T18:07:31.558Z,56.58
2018-09-17T18:10:00.251Z,56.91
2018-09-17T18:12:28.908Z,57.03
2018-09-17T18:14:57.563Z,57.54
2018-09-17T18:17:26.500Z,57.11
2018-09-17T18:19:55.156Z,57.39
2018-09-17T18:22:23.789Z,58.47
2018-09-17T18:24:52.450Z,58.00
2018-09-17T18:27:21.525Z,58.16
2018-09-17T18:29:50.161Z,58.33
2018-09-17T18:32:18.790Z,58.86
2018-09-17T18:34:47.447Z,59.84
2018-09-17T18:37:16.146Z,60.28
2018-09-17T18:39:44.988Z,59.64
2018-09-17T18:42:13.508Z,60.46
2018-09-17T18:44:42.218Z,60.41
2018-09-17T18:47:10.973Z,60.80
2018-09-17T18:49:39.784Z,60.51
2018-09-17T18:52:08.520Z,60.76
2018-09-17T18:54:37.458Z,61.10
2018-09-17T18:57:06.224Z,60.84
2018-09-17T18:59:34.989Z,60.73
2018-09-17T19:02:03.710Z,60.26
2018-09-17T19:04:32.366Z,61.20
2018-09-17T19:07:01.060Z,60.82
2018-09-17T19:09:34.853Z,60.89
2018-09-17T19:12:03.732Z,61.89
2018-09-17T19:14:37.716Z,61.59
2018-09-17T19:17:11.768Z,61.57
2018-09-17T19:19:40.518Z,61.59
2018-09-17T19:22:14.439Z,62.38
2018-09-17T19:24:42.991Z,62.73
2018-09-17T19:27:11.640Z,63.74
2018-09-17T19:29:40.335Z,64.46
2018-09-17T19:32:09.004Z,65.16
2018-09-17T19:34:37.629Z,65.93
2018-09-17T19:37:11.629Z,66.88
2018-09-17T19:42:20.703Z,67.74
2018-09-17T19:44:54.552Z,68.12
2018-09-17T19:47:23.238Z,68.69
2018-09-17T19:49:52.050Z,68.43
2018-09-17T19:52:23.384Z,68.99
2018-09-17T19:54:52.359Z,69.42
2018-09-17T19:57:26.143Z,70.21
2018-09-17T19:59:56.108Z,70.40
2018-09-17T20:02:25.104Z,70.42
2018-09-17T20:04:58.978Z,72.00
2018-09-17T20:07:27.641Z,72.13
2018-09-17T20:09:56.326Z,72.28
2018-09-17T20:12:24.950Z,72.22
2018-09-17T20:14:53.593Z,72.33
2018-09-17T20:17:22.210Z,73.40
2018-09-17T20:19:50.976Z,72.33
2018-09-17T20:22:19.701Z,72.90
2018-09-17T20:24:48.399Z,73.83
2018-09-17T20:27:17.109Z,73.46
2018-09-17T20:29:45.784Z,74.16
2018-09-17T20:32:14.538Z,73.82
2018-09-17T20:34:43.226Z,73.61
2018-09-17T20:37:12.024Z,73.94
2018-09-17T20:39:40.712Z,74.14
2018-09-17T20:42:09.391Z,73.92
2018-09-17T20:44:38.069Z,72.78
2018-09-17T20:47:07.349Z,72.87
2018-09-17T20:49:36.171Z,73.14
2018-09-17T20:52:04.855Z,73.81
2018-09-17T20:54:33.593Z,74.10
2018-09-17T20:57:02.304Z,73.95
2018-09-17T20:59:31.005Z,74.08
2018-09-17T21:01:59.738Z,74.02
2018-09-17T21:04:28.499Z,74.86
2018-09-17T21:06:57.355Z,74.45
2018-09-17T21:09:26.395Z,75.21
2018-09-17T21:11:55.100Z,74.95
2018-09-17T21:14:23.779Z,74.25
2018-09-17T21:16:52.468Z,74.78
2018-09-17T21:19:21.242Z,74.73
2018-09-17T21:21:49.917Z,74.55
2018-09-17T21:24:18.622Z,74.24
2018-09-17T21:26:47.314Z,75.06
2018-09-17T21:29:16.017Z,75.12
2018-09-17T21:31:44.776Z,74.29
2018-09-17T21:34:13.628Z,74.28
2018-09-17T21:36:42.489Z,75.20
2018-09-17T21:39:14.756Z,74.92
2018-09-17T21:41:43.486Z,74.89
2018-09-17T21:44:12.236Z,74.87
2018-09-17T21:46:40.996Z,75.18
2018-09-17T21:49:09.751Z,74.61
2018-09-17T21:51:38.445Z,75.93
2018-09-17T21:54:07.107Z,75.65
2018-09-17T21:56:35.809Z,75.63
2018-09-17T21:59:04.582Z,75.42
2018-09-17T22:01:33.250Z,75.84
2018-09-17T22:04:01.948Z,75.12
2018-09-17T22:06:30.612Z,76.09
2018-09-17T22:08:59.331Z,76.14
2018-09-17T22:11:28.001Z,75.55
2018-09-17T22:13:56.725Z,75.60
2018-09-17T22:16:25.346Z,76.12
2018-09-17T22:18:54.078Z,75.56
2018-09-17T22:21:22.782Z,76.31
2018-09-17T22:23:51.462Z,76.34
2018-09-17T22:26:20.155Z,76.71
2018-09-17T22:28:48.814Z,76.41
2018-09-17T22:31:17.590Z,76.03
2018-09-17T22:33:46.274Z,76.51
2018-09-17T22:36:14.931Z,75.97
2018-09-17T22:38:43.645Z,76.25
2018-09-17T22:41:12.305Z,76.00
2018-09-17T22:43:40.980Z,76.07
2018-09-17T22:46:09.672Z,76.39
2018-09-17T22:48:38.371Z,75.39
2018-09-17T22:51:07.382Z,75.75
2018-09-17T22:53:36.046Z,75.41
2018-09-17T22:56:04.723Z,76.39
2018-09-17T22:58:33.386Z,75.72
2018-09-17T23:01:02.050Z,76.15
2018-09-17T23:03:30.703Z,75.94
2018-09-17T23:05:59.414Z,75.80
2018-09-17T23:08:28.111Z,75.20
2018-09-17T23:10:56.804Z,75.44
2018-09-17T23:13:25.464Z,74.83
2018-09-17T23:15:54.135Z,75.51
2018-09-17T23:18:22.875Z,75.29
2018-09-17T23:20:51.584Z,74.80
2018-09-17T23:23:20.307Z,74.95
2018-09-17T23:25:48.995Z,74.37
2018-09-17T23:28:17.711Z,74.85
2018-09-17T23:30:46.424Z,75.11
2018-09-17T23:33:15.101Z,74.33
2018-09-17T23:35:43.775Z,74.29
2018-09-17T23:38:12.453Z,74.67
2018-09-17T23:40:41.180Z,74.96
2018-09-17T23:43:09.873Z,75.47
2018-09-17T23:45:38.528Z,74.54
2018-09-17T23:48:07.216Z,74.76
2018-09-17T23:50:35.944Z,74.77
2018-09-17T23:53:04.618Z,74.90
2018-09-17T23:55:33.319Z,75.59
2018-09-17T23:58:01.965Z,74.78
